createdAt,value
2019-05-20T00:02:24.716Z,9.67
2019-05-20T00:07:23.630Z,9.73
2019-05-20T00:12:25.717Z,10.47
2019-05-20T00:17:27.850Z,10.20
2019-05-20T00:22:29.954Z,10.07
2019-05-20T00:27:32.054Z,9.93
2019-05-20T00:32:40.989Z,9.43
2019-05-20T00:37:38.623Z,9.60
2019-05-20T00:42:40.800Z,8.70
2019-05-20T00:47:42.854Z,9.93
2019-05-20T00:52:44.919Z,8.47
2019-05-20T00:57:47.091Z,9.20
2019-05-20T01:02:56.414Z,9.37
2019-05-20T01:07:53.197Z,9.57
2019-05-20T01:12:55.346Z,9.90
2019-05-20T01:17:57.469Z,9.07
2019-05-20T01:22:59.653Z,9.00
2019-05-20T01:28:01.713Z,9.23
2019-05-20T01:33:13.209Z,9.87
2019-05-20T01:38:07.724Z,9.50
2019-05-20T01:43:09.817Z,10.03
2019-05-20T01:48:11.897Z,9.10
2019-05-20T01:53:13.951Z,9.70
2019-05-20T01:58:16.016Z,9.67
2019-05-20T02:03:30.931Z,10.47
2019-05-20T02:08:22.086Z,10.13
2019-05-20T02:13:26.630Z,8.97
2019-05-20T02:18:28.717Z,10.60
2019-05-20T02:23:30.755Z,9.60
2019-05-20T02:28:32.857Z,9.97
2019-05-20T02:33:51.063Z,10.87
2019-05-20T02:38:38.980Z,10.90
2019-05-20T02:43:41.032Z,12.20
2019-05-20T02:48:43.117Z,11.47
2019-05-20T02:53:45.175Z,11.87
2019-05-20T02:58:47.322Z,13.07
2019-05-20T03:03:49.422Z,12.33
2019-05-20T03:08:51.529Z,12.47
2019-05-20T03:13:53.618Z,12.37
2019-05-20T03:18:55.716Z,13.80
2019-05-20T03:23:59.022Z,14.47
2019-05-20T03:29:01.946Z,13.83
2019-05-20T03:34:04.322Z,14.97
2019-05-20T03:39:06.495Z,14.13
2019-05-20T03:44:08.626Z,14.13
2019-05-20T03:49:10.716Z,15.50
2019-05-20T03:54:12.803Z,15.33
2019-05-20T03:59:14.980Z,15.17
2019-05-20T04:04:18.402Z,15.97
2019-05-20T04:09:20.535Z,17.50
2019-05-20T04:14:22.624Z,18.03
2019-05-20T04:19:24.807Z,17.83
2019-05-20T04:24:27.150Z,20.43
2019-05-20T04:29:31.069Z,20.30
2019-05-20T04:34:33.237Z,21.20
2019-05-20T04:39:35.430Z,21.03
2019-05-20T04:44:39.817Z,20.30
2019-05-20T04:56:48.811Z,19.23
2019-05-20T05:01:51.129Z,18.37
2019-05-20T05:06:55.077Z,17.67
2019-05-20T05:11:57.189Z,16.93
2019-05-20T05:16:59.873Z,16.97
2019-05-20T05:22:02.059Z,16.37
2019-05-20T05:27:04.853Z,16.73
2019-05-20T05:32:06.978Z,16.77
2019-05-20T05:37:09.055Z,14.87
2019-05-20T05:42:11.128Z,15.93
2019-05-20T05:47:13.252Z,12.98
2019-05-20T05:52:15.347Z,14.63
2019-05-20T05:57:17.410Z,14.78
2019-05-20T06:02:22.340Z,14.73
2019-05-20T06:07:24.446Z,14.20
2019-05-20T06:12:26.424Z,14.28
2019-05-20T06:17:28.817Z,13.78
2019-05-20T06:22:32.612Z,13.72
2019-05-20T06:27:34.903Z,13.72
2019-05-20T06:32:37.123Z,15.10
2019-05-20T06:37:42.676Z,13.62
2019-05-20T06:42:44.704Z,14.95
2019-05-20T06:47:46.792Z,14.40
2019-05-20T06:52:49.296Z,12.78
2019-05-20T06:57:51.360Z,12.98
2019-05-20T07:02:53.465Z,13.60
2019-05-20T07:07:55.497Z,13.00
2019-05-20T07:12:57.619Z,13.20
2019-05-20T07:17:59.688Z,12.23
2019-05-20T07:23:04.137Z,11.97
2019-05-20T07:28:06.233Z,11.38
2019-05-20T07:33:08.336Z,11.20
2019-05-20T07:38:19.147Z,11.03
2019-05-20T07:43:24.486Z,10.85
2019-05-20T07:48:27.586Z,10.13
2019-05-20T07:53:31.018Z,10.25
2019-05-20T07:58:35.890Z,10.65
2019-05-20T08:03:38.809Z,11.83
2019-05-20T08:08:43.411Z,11.90
2019-05-20T08:13:45.566Z,11.73
2019-05-20T08:18:47.779Z,10.53
2019-05-20T08:23:50.383Z,11.73
2019-05-20T08:28:52.676Z,11.88
2019-05-20T08:33:54.893Z,12.82
2019-05-20T08:38:57.027Z,11.12
2019-05-20T08:43:59.132Z,11.45
2019-05-20T08:49:01.265Z,10.90
2019-05-20T08:54:19.816Z,12.13
2019-05-20T08:59:21.958Z,12.45
2019-05-20T09:04:24.031Z,11.08
2019-05-20T09:09:26.179Z,12.70
2019-05-20T09:14:28.714Z,12.65
2019-05-20T09:19:30.924Z,13.22
2019-05-20T09:24:34.856Z,13.60
2019-05-20T09:29:38.156Z,14.03
2019-05-20T09:34:40.950Z,12.98
2019-05-20T09:39:43.049Z,13.75
2019-05-20T09:44:45.123Z,12.82
2019-05-20T09:49:47.199Z,13.35
2019-05-20T09:54:49.305Z,12.85
2019-05-20T09:59:51.373Z,14.80
2019-05-20T10:04:53.579Z,12.90
2019-05-20T10:09:55.688Z,13.70
2019-05-20T10:14:57.898Z,14.10
2019-05-20T10:20:01.203Z,13.03
2019-05-20T10:25:03.875Z,12.40
2019-05-20T10:30:06.702Z,12.78
2019-05-20T10:35:09.497Z,12.47
2019-05-20T10:40:11.992Z,11.28
2019-05-20T10:45:14.456Z,11.08
2019-05-20T10:50:16.843Z,10.88
2019-05-20T10:55:19.287Z,12.25
2019-05-20T11:00:21.576Z,11.15
2019-05-20T11:05:23.630Z,11.90
2019-05-20T11:10:25.797Z,9.78
2019-05-20T11:15:27.887Z,10.85
2019-05-20T11:20:30.010Z,10.50
2019-05-20T11:25:32.128Z,10.38
2019-05-20T11:30:34.189Z,10.80
2019-05-20T11:35:36.264Z,11.43
2019-05-20T11:40:38.329Z,10.72
2019-05-20T11:45:40.444Z,11.25
2019-05-20T11:50:42.663Z,11.30
2019-05-20T11:55:44.707Z,11.00
2019-05-20T12:00:46.750Z,11.70
2019-05-20T12:05:48.875Z,12.43
2019-05-20T12:10:51.039Z,11.50
2019-05-20T12:15:53.084Z,12.07
2019-05-20T12:20:55.175Z,12.43
2019-05-20T12:25:57.265Z,12.45
2019-05-20T12:30:59.420Z,13.03
2019-05-20T12:36:01.501Z,12.88
2019-05-20T12:41:03.544Z,11.70
2019-05-20T12:46:05.640Z,11.48
2019-05-20T12:51:07.788Z,11.50
2019-05-20T12:56:09.879Z,11.43
2019-05-20T13:01:11.981Z,11.55
2019-05-20T13:06:14.026Z,11.85
2019-05-20T13:11:16.127Z,12.00
2019-05-20T13:16:18.221Z,11.80
2019-05-20T13:21:20.257Z,12.63
2019-05-20T13:26:22.353Z,12.63
2019-05-20T13:31:24.568Z,11.93
2019-05-20T13:36:26.631Z,12.65
2019-05-20T13:41:29.123Z,11.88
2019-05-20T13:46:33.613Z,11.03
2019-05-20T13:51:38.569Z,11.90
2019-05-20T13:56:40.240Z,12.57
2019-05-20T14:01:43.997Z,12.70
2019-05-20T14:06:46.112Z,12.68
2019-05-20T14:11:48.228Z,10.68
2019-05-20T14:16:50.330Z,9.83
2019-05-20T14:21:52.402Z,7.85
2019-05-20T14:26:54.637Z,6.17
2019-05-20T14:31:56.805Z,5.50
2019-05-20T14:36:58.898Z,5.72
2019-05-20T14:42:01.064Z,5.90
2019-05-20T14:47:03.310Z,6.37
2019-05-20T14:52:05.461Z,6.00
2019-05-20T14:57:07.538Z,6.12
2019-05-20T15:02:09.842Z,6.33
2019-05-20T15:07:12.065Z,5.95
2019-05-20T15:12:14.210Z,6.30
2019-05-20T15:17:16.276Z,6.40
2019-05-20T15:22:18.430Z,6.28
2019-05-20T15:27:20.518Z,6.20
2019-05-20T15:32:22.643Z,6.70
2019-05-20T15:37:26.943Z,5.85
2019-05-20T15:42:30.483Z,6.33
2019-05-20T15:47:32.543Z,6.03
2019-05-20T15:52:34.702Z,5.87
2019-05-20T15:57:36.761Z,5.90
2019-05-20T16:02:38.862Z,5.42
2019-05-20T16:07:40.991Z,5.53
2019-05-20T16:12:43.634Z,5.42
2019-05-20T16:23:01.307Z,7.83
2019-05-20T16:28:03.560Z,5.67
2019-05-20T16:33:05.666Z,5.58
2019-05-20T16:38:07.834Z,5.73
2019-05-20T16:43:09.959Z,5.78
2019-05-20T16:48:12.284Z,5.37
2019-05-20T16:53:14.515Z,5.05
2019-05-20T16:58:18.911Z,6.20
2019-05-20T17:03:20.991Z,7.00
2019-05-20T17:08:24.629Z,6.67
2019-05-20T17:13:30.201Z,6.70
2019-05-20T17:18:32.260Z,8.20
2019-05-20T17:23:34.341Z,8.38
2019-05-20T17:28:36.527Z,7.65
2019-05-20T17:33:38.703Z,8.13
2019-05-20T17:38:43.190Z,9.20
2019-05-20T17:43:45.441Z,7.90
2019-05-20T17:48:47.516Z,7.50
2019-05-20T17:53:49.810Z,7.00
2019-05-20T17:58:51.932Z,7.60
2019-05-20T18:03:54.061Z,7.53
2019-05-20T18:08:58.120Z,7.60
2019-05-20T18:14:01.191Z,7.13
2019-05-20T18:19:03.425Z,8.30
2019-05-20T18:24:05.468Z,7.50
2019-05-20T18:29:07.637Z,7.20
2019-05-20T18:34:09.763Z,8.73
2019-05-20T18:39:11.813Z,9.80
2019-05-20T18:44:13.909Z,9.83
2019-05-20T18:49:16.024Z,10.77
2019-05-20T18:54:18.095Z,9.77
2019-05-20T18:59:20.181Z,10.67
2019-05-20T19:04:22.297Z,11.70
2019-05-20T19:09:27.797Z,11.77
2019-05-20T19:14:30.010Z,11.27
2019-05-20T19:19:36.531Z,9.37
2019-05-20T19:24:39.599Z,8.30
2019-05-20T19:29:44.471Z,8.37
2019-05-20T19:34:56.028Z,7.60
2019-05-20T19:39:58.099Z,8.80
2019-05-20T19:45:00.244Z,8.37
2019-05-20T19:50:10.677Z,7.47
2019-05-20T19:55:22.299Z,9.20
2019-05-20T20:00:35.624Z,7.97
2019-05-20T20:05:44.599Z,7.67
2019-05-20T20:10:47.958Z,8.50
2019-05-20T20:15:58.599Z,8.30
2019-05-20T20:21:38.155Z,9.27
2019-05-20T20:26:52.688Z,9.10
2019-05-20T20:31:52.443Z,8.87
2019-05-20T20:36:54.612Z,10.10
2019-05-20T20:41:56.664Z,12.17
2019-05-20T20:47:01.134Z,11.20
2019-05-20T20:52:10.606Z,9.27
2019-05-20T20:57:12.775Z,9.87
2019-05-20T21:02:14.975Z,10.07
2019-05-20T21:07:17.166Z,12.30
2019-05-20T21:12:19.234Z,12.00
2019-05-20T21:17:21.284Z,11.37
2019-05-20T21:22:23.398Z,9.37
2019-05-20T21:27:25.492Z,11.00
2019-05-20T21:32:27.624Z,10.20
2019-05-20T21:37:29.747Z,14.87
2019-05-20T21:42:31.818Z,12.27
2019-05-20T21:47:34.018Z,11.73
2019-05-20T21:52:36.115Z,13.93
2019-05-20T21:57:38.288Z,15.20
2019-05-20T22:02:40.356Z,15.37
2019-05-20T22:07:42.407Z,16.67
2019-05-20T22:12:44.571Z,17.27
2019-05-20T22:17:46.642Z,17.27
2019-05-20T22:23:08.360Z,19.30
2019-05-20T22:28:12.903Z,21.43
2019-05-20T22:33:14.446Z,22.87
2019-05-20T22:38:16.537Z,21.67
2019-05-20T22:43:18.632Z,22.47
2019-05-20T22:48:20.676Z,21.13
2019-05-20T22:53:22.815Z,22.10
2019-05-20T22:58:24.885Z,20.40
2019-05-20T23:03:26.976Z,18.43
2019-05-20T23:08:29.101Z,17.10
2019-05-20T23:13:31.264Z,17.73
2019-05-20T23:18:33.617Z,15.67
2019-05-20T23:23:35.678Z,15.53
2019-05-20T23:28:37.746Z,14.07
2019-05-20T23:33:39.848Z,15.03
2019-05-20T23:38:41.919Z,13.80
2019-05-20T23:43:44.065Z,15.00
2019-05-20T23:48:46.150Z,15.20
2019-05-20T23:53:48.194Z,15.73
2019-05-20T23:58:50.271Z,14.37
